createdAt,value
2022-11-18T00:00:01.199Z,2.6
2022-11-18T00:01:02.066Z,2.6
2022-11-18T00:02:01.222Z,2.6
2022-11-18T00:03:02.054Z,2.6
2022-11-18T00:04:01.050Z,2.6
2022-11-18T00:05:01.879Z,2.6
2022-11-18T00:06:04.636Z,2.6
2022-11-18T00:07:01.209Z,2.6
2022-11-18T00:08:01.083Z,2.6
2022-11-18T00:09:01.120Z,2.6
2022-11-18T00:10:01.332Z,2.6
2022-11-18T00:11:02.092Z,2.6
2022-11-18T00:12:01.178Z,2.6
2022-11-18T00:13:01.099Z,2.6
2022-11-18T00:14:01.233Z,2.6
2022-11-18T00:15:02.064Z,2.6
2022-11-18T00:16:01.359Z,2.6
2022-11-18T00:17:01.981Z,2.6
2022-11-18T00:18:01.118Z,2.6
2022-11-18T00:19:01.321Z,2.5
2022-11-18T00:20:01.916Z,2.6
2022-11-18T00:21:01.171Z,2.5
2022-11-18T00:22:01.894Z,2.5
2022-11-18T00:23:01.975Z,2.5
2022-11-18T00:24:01.072Z,2.5
2022-11-18T00:25:02.430Z,2.5
2022-11-18T00:26:02.490Z,2.5
2022-11-18T00:27:02.121Z,2.5
2022-11-18T00:28:01.302Z,2.5
2022-11-18T00:29:01.155Z,2.5
2022-11-18T00:30:01.159Z,2.5
2022-11-18T00:31:02.045Z,2.5
2022-11-18T00:32:01.136Z,2.5
2022-11-18T00:33:02.071Z,2.5
2022-11-18T00:34:01.538Z,2.5
2022-11-18T00:35:01.148Z,2.5
2022-11-18T00:36:01.318Z,2.5
2022-11-18T00:37:01.061Z,2.5
2022-11-18T00:38:01.055Z,2.5
2022-11-18T00:39:01.062Z,2.5
2022-11-18T00:40:01.292Z,2.5
2022-11-18T00:41:01.572Z,2.5
2022-11-18T00:42:01.080Z,2.5
2022-11-18T00:43:01.106Z,2.5
2022-11-18T00:44:05.070Z,2.5
2022-11-18T00:45:01.099Z,2.5
2022-11-18T00:46:02.262Z,2.5
2022-11-18T00:47:01.277Z,2.5
2022-11-18T00:48:01.153Z,2.5
2022-11-18T00:49:02.568Z,2.5
2022-11-18T00:50:01.489Z,2.5
2022-11-18T00:51:01.397Z,2.5
2022-11-18T00:52:01.148Z,2.5
2022-11-18T00:53:01.194Z,2.5
2022-11-18T00:54:01.117Z,2.5
2022-11-18T00:55:01.100Z,2.5
2022-11-18T00:56:01.993Z,2.5
2022-11-18T00:57:01.203Z,2.5
2022-11-18T00:58:01.897Z,2.5
2022-11-18T00:59:01.111Z,2.5
2022-11-18T01:00:01.204Z,2.5
2022-11-18T01:01:04.491Z,2.5
2022-11-18T01:02:01.924Z,2.5
2022-11-18T01:03:01.964Z,2.5
2022-11-18T01:04:01.181Z,2.5
2022-11-18T01:05:01.133Z,2.5
2022-11-18T01:06:00.954Z,2.5
2022-11-18T01:07:01.510Z,2.5
2022-11-18T01:08:01.442Z,2.5
2022-11-18T01:09:02.119Z,2.6
2022-11-18T01:10:01.849Z,2.5
2022-11-18T01:11:03.655Z,2.5
2022-11-18T01:12:01.073Z,2.6
2022-11-18T01:13:01.076Z,2.5
2022-11-18T01:14:01.089Z,2.5
2022-11-18T01:15:02.122Z,2.5
2022-11-18T01:16:05.796Z,2.5
2022-11-18T01:17:01.407Z,2.5
2022-11-18T01:18:01.460Z,2.5
2022-11-18T01:19:01.553Z,2.5
2022-11-18T01:20:01.478Z,2.5
2022-11-18T01:21:08.320Z,2.5
2022-11-18T01:22:01.468Z,2.5
2022-11-18T01:23:02.589Z,2.5
2022-11-18T01:24:01.158Z,2.5
2022-11-18T01:25:01.952Z,2.5
2022-11-18T01:26:11.427Z,2.5
2022-11-18T01:27:00.896Z,2.5
2022-11-18T01:28:00.671Z,2.5
2022-11-18T01:29:00.475Z,2.5
2022-11-18T01:30:00.232Z,2.5
2022-11-18T01:31:13.186Z,2.5
2022-11-18T01:32:23.341Z,2.5
2022-11-18T01:33:01.204Z,2.5
2022-11-18T01:34:01.829Z,2.5
2022-11-18T01:35:02.017Z,2.5
2022-11-18T01:36:16.182Z,2.5
2022-11-18T01:37:01.503Z,2.5
2022-11-18T01:38:01.137Z,2.5
2022-11-18T01:39:08.721Z,2.5
2022-11-18T01:40:01.159Z,2.5
2022-11-18T01:41:01.957Z,2.5
2022-11-18T01:42:02.538Z,2.4
2022-11-18T01:43:01.224Z,2.5
2022-11-18T01:44:01.085Z,2.5
2022-11-18T01:45:01.559Z,2.5
2022-11-18T01:45:59.748Z,2.5
2022-11-18T01:47:02.250Z,2.5
2022-11-18T01:48:02.140Z,2.5
2022-11-18T01:49:01.128Z,2.5
2022-11-18T01:50:01.970Z,2.5
2022-11-18T01:51:01.143Z,2.5
2022-11-18T01:52:01.145Z,2.5
2022-11-18T01:53:01.127Z,2.5
2022-11-18T01:54:02.021Z,2.5
2022-11-18T01:55:01.365Z,2.4
2022-11-18T01:56:01.570Z,2.4
2022-11-18T01:57:01.340Z,2.4
2022-11-18T01:58:01.088Z,2.4
2022-11-18T01:59:01.065Z,2.4
2022-11-18T02:00:01.072Z,2.4
2022-11-18T02:01:01.806Z,2.4
2022-11-18T02:02:01.172Z,2.4
2022-11-18T02:03:01.148Z,2.3
2022-11-18T02:04:01.928Z,2.3
2022-11-18T02:05:01.119Z,2.3
2022-11-18T02:06:01.353Z,2.3
2022-11-18T02:07:01.183Z,2.3
2022-11-18T02:08:02.911Z,2.3
2022-11-18T02:09:02.943Z,2.3
2022-11-18T02:10:01.175Z,2.3
2022-11-18T02:11:01.139Z,2.3
2022-11-18T02:12:01.192Z,2.3
2022-11-18T02:13:01.196Z,2.3
2022-11-18T02:14:02.406Z,2.3
2022-11-18T02:15:02.030Z,2.3
2022-11-18T02:16:02.130Z,2.3
2022-11-18T02:17:02.135Z,2.3
2022-11-18T02:18:01.830Z,2.3
2022-11-18T02:19:01.090Z,2.3
2022-11-18T02:20:01.104Z,2.3
2022-11-18T02:21:01.928Z,2.3
2022-11-18T02:22:01.111Z,2.3
2022-11-18T02:23:01.250Z,2.3
2022-11-18T02:24:01.233Z,2.3
2022-11-18T02:25:02.036Z,2.3
2022-11-18T02:26:01.528Z,2.3
2022-11-18T02:27:03.187Z,2.3
2022-11-18T02:28:01.724Z,2.3
2022-11-18T02:29:01.236Z,2.3
2022-11-18T02:30:02.633Z,2.3
2022-11-18T02:31:01.517Z,2.3
2022-11-18T02:32:01.114Z,2.2
2022-11-18T02:33:01.527Z,2.3
2022-11-18T02:34:01.210Z,2.2
2022-11-18T02:35:02.286Z,2.2
2022-11-18T02:36:02.371Z,2.2
2022-11-18T02:37:01.098Z,2.1
2022-11-18T02:38:02.350Z,2.1
2022-11-18T02:39:01.116Z,2.1
2022-11-18T02:40:01.129Z,2.1
2022-11-18T02:41:01.132Z,2.1
2022-11-18T02:42:01.278Z,2.1
2022-11-18T02:43:01.207Z,2.1
2022-11-18T02:44:01.200Z,2.1
2022-11-18T02:45:01.993Z,2.1
2022-11-18T02:46:01.794Z,2.1
2022-11-18T02:47:01.046Z,2
2022-11-18T02:48:01.083Z,2
2022-11-18T02:49:00.904Z,2
2022-11-18T02:50:00.670Z,2
2022-11-18T02:51:00.441Z,2.1
2022-11-18T02:52:00.277Z,2.1
2022-11-18T02:53:00.213Z,2.1
2022-11-18T02:54:00.094Z,2.1
2022-11-18T02:54:59.805Z,2.1
2022-11-18T02:56:01.526Z,2.1
2022-11-18T02:57:01.944Z,2
2022-11-18T02:58:01.464Z,2
2022-11-18T02:59:01.168Z,2
2022-11-18T03:00:01.150Z,2
2022-11-18T03:01:02.599Z,2
2022-11-18T03:02:02.755Z,2
2022-11-18T03:03:01.116Z,2
2022-11-18T03:04:02.420Z,2
2022-11-18T03:05:01.079Z,2
2022-11-18T03:06:01.209Z,2
2022-11-18T03:07:05.276Z,2
2022-11-18T03:08:01.271Z,1.9
2022-11-18T03:09:01.546Z,1.9
2022-11-18T03:10:01.522Z,1.9
2022-11-18T03:11:01.351Z,1.9
2022-11-18T03:12:07.907Z,1.9
2022-11-18T03:13:01.188Z,1.9
2022-11-18T03:14:01.986Z,1.9
2022-11-18T03:15:00.925Z,1.9
2022-11-18T03:16:01.147Z,1.9
2022-11-18T03:17:10.968Z,1.8
2022-11-18T03:18:01.530Z,1.8
2022-11-18T03:19:01.058Z,1.9
2022-11-18T03:20:01.078Z,1.8
2022-11-18T03:21:01.182Z,1.8
2022-11-18T03:22:13.673Z,1.8
2022-11-18T03:23:02.001Z,1.8
2022-11-18T03:24:01.290Z,1.8
2022-11-18T03:25:01.194Z,1.8
2022-11-18T03:26:02.639Z,1.8
2022-11-18T03:27:16.760Z,1.8
2022-11-18T03:28:02.361Z,1.8
2022-11-18T03:29:01.519Z,1.8
2022-11-18T03:30:01.326Z,1.8
2022-11-18T03:31:01.083Z,1.8
2022-11-18T03:32:01.798Z,1.8
2022-11-18T03:33:01.535Z,1.8
2022-11-18T03:34:02.179Z,1.8
2022-11-18T03:35:02.166Z,1.8
2022-11-18T03:36:02.196Z,1.7
2022-11-18T03:37:02.556Z,1.8
2022-11-18T03:38:01.084Z,1.7
2022-11-18T03:39:01.096Z,1.7
2022-11-18T03:40:01.900Z,1.7
2022-11-18T03:41:02.495Z,1.7
2022-11-18T03:42:01.271Z,1.7
2022-11-18T03:43:01.980Z,1.6
2022-11-18T03:44:01.387Z,1.6
2022-11-18T03:45:01.454Z,1.6
2022-11-18T03:46:02.247Z,1.6
2022-11-18T03:47:01.249Z,1.6
2022-11-18T03:48:02.962Z,1.6
2022-11-18T03:49:01.268Z,1.6
2022-11-18T03:50:02.010Z,1.6
2022-11-18T03:51:01.056Z,1.6
2022-11-18T03:52:01.191Z,1.6
2022-11-18T03:53:01.371Z,1.6
2022-11-18T03:54:01.073Z,1.6
2022-11-18T03:55:01.122Z,1.6
2022-11-18T03:56:01.122Z,1.5
2022-11-18T03:57:01.390Z,1.5
2022-11-18T03:58:02.163Z,1.5
2022-11-18T03:59:01.112Z,1.5
2022-11-18T04:00:01.804Z,1.5
2022-11-18T04:01:02.612Z,1.5
2022-11-18T04:02:01.243Z,1.5
2022-11-18T04:03:01.380Z,1.5
2022-11-18T04:04:01.427Z,1.5
2022-11-18T04:05:02.057Z,1.4
2022-11-18T04:06:02.069Z,1.4
2022-11-18T04:07:01.238Z,1.4
2022-11-18T04:08:01.066Z,1.4
2022-11-18T04:09:01.074Z,1.4
2022-11-18T04:10:01.469Z,1.4
2022-11-18T04:11:02.107Z,1.4
2022-11-18T04:12:01.142Z,1.4
2022-11-18T04:13:06.139Z,1.3
2022-11-18T04:14:02.157Z,1.3
2022-11-18T04:15:01.930Z,1.3
2022-11-18T04:16:01.112Z,1.3
2022-11-18T04:17:01.133Z,1.3
2022-11-18T04:18:01.150Z,1.3
2022-11-18T04:19:06.027Z,1.3
2022-11-18T04:20:02.191Z,1.2
2022-11-18T04:21:01.265Z,1.2
2022-11-18T04:22:01.368Z,1.2
2022-11-18T04:23:01.161Z,1.2
2022-11-18T04:24:01.120Z,1.1
2022-11-18T04:25:01.812Z,1.1
2022-11-18T04:26:01.169Z,1.1
2022-11-18T04:27:01.127Z,1.1
2022-11-18T04:28:01.494Z,1.1
2022-11-18T04:29:01.169Z,1.1
2022-11-18T04:30:01.127Z,1.1
2022-11-18T04:31:01.937Z,1.1
2022-11-18T04:32:01.126Z,1.1
2022-11-18T04:33:01.147Z,1.1
2022-11-18T04:34:01.155Z,1.1
2022-11-18T04:35:01.970Z,1.1
2022-11-18T04:36:02.048Z,1.1
2022-11-18T04:37:01.179Z,1.1
2022-11-18T04:38:01.268Z,1.1
2022-11-18T04:39:01.189Z,1
2022-11-18T04:40:01.075Z,1
2022-11-18T04:41:01.074Z,1
2022-11-18T04:42:01.083Z,1
2022-11-18T04:43:01.105Z,1
2022-11-18T04:44:01.085Z,1
2022-11-18T04:45:01.095Z,1
2022-11-18T04:46:01.065Z,1
2022-11-18T04:47:01.215Z,1
2022-11-18T04:48:03.694Z,1
2022-11-18T04:49:02.214Z,1
2022-11-18T04:50:02.565Z,1
2022-11-18T04:51:02.610Z,1
2022-11-18T04:52:02.582Z,1
2022-11-18T04:53:05.823Z,1
2022-11-18T04:54:01.436Z,1
2022-11-18T04:55:01.479Z,1
2022-11-18T04:56:02.656Z,0.9
2022-11-18T04:57:01.145Z,0.9
2022-11-18T04:58:09.295Z,0.9
2022-11-18T04:59:01.296Z,0.9
2022-11-18T05:00:02.092Z,0.9
2022-11-18T05:01:01.411Z,0.8
2022-11-18T05:02:01.251Z,0.8
2022-11-18T05:03:09.860Z,0.8
2022-11-18T05:04:01.568Z,0.8
2022-11-18T05:05:01.152Z,0.8
2022-11-18T05:06:02.143Z,0.8
2022-11-18T05:07:01.257Z,0.7
2022-11-18T05:08:11.763Z,0.7
2022-11-18T05:09:01.074Z,0.7
2022-11-18T05:10:00.838Z,0.7
2022-11-18T05:11:01.466Z,0.7
2022-11-18T05:12:02.205Z,0.7
2022-11-18T05:13:14.546Z,0.7
2022-11-18T05:14:01.079Z,0.7
2022-11-18T05:15:01.200Z,0.7
2022-11-18T05:16:01.497Z,0.7
2022-11-18T05:17:01.567Z,0.7
2022-11-18T05:18:16.793Z,0.7
2022-11-18T05:19:01.607Z,0.7
2022-11-18T05:20:01.525Z,0.7
2022-11-18T05:21:01.365Z,0.7
2022-11-18T05:22:01.131Z,0.7
2022-11-18T05:23:01.128Z,0.7
2022-11-18T05:24:01.340Z,0.7
2022-11-18T05:25:01.475Z,0.7
2022-11-18T05:26:02.578Z,0.6
2022-11-18T05:27:01.308Z,0.6
2022-11-18T05:28:01.167Z,0.6
2022-11-18T05:29:01.118Z,0.6
2022-11-18T05:30:01.056Z,0.7
2022-11-18T05:31:01.912Z,0.6
2022-11-18T05:32:02.966Z,0.6
2022-11-18T05:33:01.996Z,0.6
2022-11-18T05:34:01.094Z,0.6
2022-11-18T05:35:00.899Z,0.6
2022-11-18T05:36:01.105Z,0.5
2022-11-18T05:37:01.183Z,0.6
2022-11-18T05:38:01.438Z,0.5
2022-11-18T05:39:01.241Z,0.5
2022-11-18T05:40:01.145Z,0.5
2022-11-18T05:41:01.145Z,0.5
2022-11-18T05:42:01.252Z,0.5
2022-11-18T05:43:02.844Z,0.5
2022-11-18T05:44:01.102Z,0.4
2022-11-18T05:45:02.012Z,0.4
2022-11-18T05:46:01.091Z,0.4
2022-11-18T05:47:01.085Z,0.3
2022-11-18T05:48:01.744Z,0.3
2022-11-18T05:49:01.550Z,0.4
2022-11-18T05:50:00.700Z,0.3
2022-11-18T05:51:01.153Z,0.3
2022-11-18T05:52:01.135Z,0.3
2022-11-18T05:53:02.137Z,0.4
2022-11-18T05:54:01.848Z,0.3
2022-11-18T05:55:01.165Z,0.4
2022-11-18T05:56:01.171Z,0.4
2022-11-18T05:57:01.144Z,0.4
2022-11-18T05:58:01.164Z,0.4
2022-11-18T05:59:01.542Z,0.4
2022-11-18T06:00:01.539Z,0.4
2022-11-18T06:01:02.140Z,0.4
2022-11-18T06:02:01.100Z,0.3
2022-11-18T06:03:01.081Z,0.4
2022-11-18T06:04:01.113Z,0.3
2022-11-18T06:05:01.956Z,0.3
2022-11-18T06:06:01.775Z,0.3
2022-11-18T06:07:01.175Z,0.3
2022-11-18T06:08:01.931Z,0.3
2022-11-18T06:09:01.955Z,0.3
2022-11-18T06:10:05.825Z,0.3
2022-11-18T06:11:01.218Z,0.3
2022-11-18T06:12:01.135Z,0.3
2022-11-18T06:13:02.085Z,0.3
2022-11-18T06:14:02.652Z,0.3
2022-11-18T06:15:00.997Z,0.3
2022-11-18T06:16:15.283Z,0.3
2022-11-18T06:17:04.147Z,0.3
2022-11-18T06:18:01.758Z,0.3
2022-11-18T06:19:01.091Z,0.3
2022-11-18T06:20:01.141Z,0.3
2022-11-18T06:21:01.927Z,0.3
2022-11-18T06:22:01.618Z,0.3
2022-11-18T06:23:00.801Z,0.3
2022-11-18T06:24:01.179Z,0.3
2022-11-18T06:25:02.153Z,0.3
2022-11-18T06:26:10.082Z,0.3
2022-11-18T06:27:01.553Z,0.3
2022-11-18T06:28:01.071Z,0.3
2022-11-18T06:29:01.151Z,0.3
2022-11-18T06:30:01.148Z,0.3
2022-11-18T06:31:01.168Z,0.2
2022-11-18T06:32:01.171Z,0.3
2022-11-18T06:33:02.315Z,0.3
2022-11-18T06:34:01.790Z,0.3
2022-11-18T06:35:01.175Z,0.3
2022-11-18T06:36:01.152Z,0.3
2022-11-18T06:37:01.114Z,0.3
2022-11-18T06:38:02.976Z,0.3
2022-11-18T06:39:01.129Z,0.3
2022-11-18T06:40:02.207Z,0.3
2022-11-18T06:41:01.660Z,0.3
2022-11-18T06:42:02.158Z,0.3
2022-11-18T06:43:02.152Z,0.3
2022-11-18T06:44:02.643Z,0.3
2022-11-18T06:45:08.034Z,0.3
2022-11-18T06:46:06.112Z,0.3
2022-11-18T06:47:01.162Z,0.3
2022-11-18T06:48:01.804Z,0.3
2022-11-18T06:49:05.167Z,0.3
2022-11-18T06:50:00.758Z,0.3
2022-11-18T06:51:00.446Z,0.3
2022-11-18T06:52:00.280Z,0.3
2022-11-18T06:52:59.944Z,0.3
2022-11-18T06:54:10.397Z,0.3
2022-11-18T06:55:01.226Z,0.3
2022-11-18T06:56:01.105Z,0.3
2022-11-18T06:57:01.124Z,0.3
2022-11-18T06:58:01.148Z,0.3
2022-11-18T06:59:08.472Z,0.3
2022-11-18T07:00:02.547Z,0.3
2022-11-18T07:01:01.194Z,0.3
2022-11-18T07:02:01.292Z,0.4
2022-11-18T07:03:08.327Z,0.3
2022-11-18T07:04:10.786Z,0.3
2022-11-18T07:05:01.536Z,0.3
2022-11-18T07:06:01.164Z,0.3
2022-11-18T07:07:01.152Z,0.3
2022-11-18T07:08:01.091Z,0.3
2022-11-18T07:09:14.200Z,0.3
2022-11-18T07:10:01.079Z,0.3
2022-11-18T07:11:01.048Z,0.3
2022-11-18T07:12:01.108Z,0.2
2022-11-18T07:13:01.118Z,0.2
2022-11-18T07:14:16.388Z,0.2
2022-11-18T07:15:02.061Z,0.1
2022-11-18T07:16:02.127Z,0.1
2022-11-18T07:17:01.122Z,0.1
2022-11-18T07:18:01.204Z,0.1
2022-11-18T07:19:01.136Z,0.1
2022-11-18T07:20:01.814Z,0.1
2022-11-18T07:21:01.054Z,0.1
2022-11-18T07:22:00.738Z,0.1
2022-11-18T07:23:00.587Z,0.1
2022-11-18T07:24:00.236Z,0.1
2022-11-18T07:24:59.839Z,0.1
2022-11-18T07:26:02.211Z,0.1
2022-11-18T07:27:00.579Z,0.1
2022-11-18T07:28:00.468Z,0.1
2022-11-18T07:29:00.242Z,0.1
2022-11-18T07:29:59.891Z,0.1
2022-11-18T07:30:59.674Z,0.1
2022-11-18T07:32:01.494Z,0.1
2022-11-18T07:33:02.130Z,0.1
2022-11-18T07:34:01.197Z,0.1
2022-11-18T07:35:01.234Z,0.1
2022-11-18T07:36:01.143Z,0.1
2022-11-18T07:37:01.147Z,0.1
2022-11-18T07:38:01.404Z,0.1
2022-11-18T07:39:01.090Z,0
2022-11-18T07:40:01.103Z,0
2022-11-18T07:41:01.074Z,0
2022-11-18T07:42:00.655Z,0.1
2022-11-18T07:43:00.267Z,0.1
2022-11-18T07:44:01.157Z,0.1
2022-11-18T07:45:01.120Z,0.1
2022-11-18T07:46:01.099Z,0.1
2022-11-18T07:47:01.479Z,0.1
2022-11-18T07:48:01.499Z,0.1
2022-11-18T07:49:02.138Z,0.1
2022-11-18T07:50:01.133Z,0.1
2022-11-18T07:51:01.133Z,0.1
2022-11-18T07:52:01.137Z,0.1
2022-11-18T07:53:01.201Z,0.1
2022-11-18T07:54:01.154Z,0.1
2022-11-18T07:55:01.449Z,0.1
2022-11-18T07:56:01.053Z,0.1
2022-11-18T07:57:01.067Z,0
2022-11-18T07:58:01.089Z,0.1
2022-11-18T07:59:01.078Z,0.1
2022-11-18T08:00:01.109Z,0.1
2022-11-18T08:01:01.884Z,0.1
2022-11-18T08:02:00.712Z,0.1
2022-11-18T08:03:00.614Z,0.1
2022-11-18T08:04:00.292Z,0.1
2022-11-18T08:04:59.958Z,0.1
2022-11-18T08:05:59.683Z,0.1
2022-11-18T08:07:01.432Z,0.1
2022-11-18T08:08:01.257Z,0.1
2022-11-18T08:09:01.200Z,0.1
2022-11-18T08:10:01.330Z,0.1
2022-11-18T08:11:01.166Z,0.1
2022-11-18T08:12:01.456Z,0.1
2022-11-18T08:13:01.190Z,0.1
2022-11-18T08:14:01.086Z,0.1
2022-11-18T08:15:01.102Z,0.1
2022-11-18T08:16:01.419Z,0.1
2022-11-18T08:17:01.067Z,0.1
2022-11-18T08:18:01.116Z,0.1
2022-11-18T08:19:01.189Z,0.1
2022-11-18T08:20:01.516Z,0.1
2022-11-18T08:21:01.504Z,0.2
2022-11-18T08:22:00.761Z,0.1
2022-11-18T08:23:00.411Z,0.1
2022-11-18T08:24:00.104Z,0.1
2022-11-18T08:24:59.898Z,0.2
2022-11-18T08:25:59.496Z,0.2
2022-11-18T08:27:01.148Z,0.2
2022-11-18T08:28:01.175Z,0.2
2022-11-18T08:29:01.230Z,0.2
2022-11-18T08:30:01.736Z,0.2
2022-11-18T08:31:01.084Z,0.2
2022-11-18T08:32:01.078Z,0.1
2022-11-18T08:33:01.092Z,0.1
2022-11-18T08:34:01.120Z,0.1
2022-11-18T08:35:10.891Z,0.1
2022-11-18T08:36:01.439Z,0.1
2022-11-18T08:37:01.467Z,0.1
2022-11-18T08:38:01.536Z,0.1
2022-11-18T08:39:02.143Z,0.1
2022-11-18T08:40:07.706Z,0.1
2022-11-18T08:41:01.801Z,0.1
2022-11-18T08:42:01.092Z,0.1
2022-11-18T08:43:01.234Z,0
2022-11-18T08:44:01.152Z,0
2022-11-18T08:45:10.135Z,0
2022-11-18T08:46:01.884Z,0
2022-11-18T08:47:01.280Z,0
2022-11-18T08:48:01.480Z,0
2022-11-18T08:49:01.196Z,0
2022-11-18T08:50:12.828Z,0
2022-11-18T08:51:01.103Z,0.1
2022-11-18T08:52:01.263Z,0.1
2022-11-18T08:53:01.079Z,0
2022-11-18T08:54:01.727Z,0.1
2022-11-18T08:55:15.084Z,0.1
2022-11-18T08:56:01.335Z,0
2022-11-18T08:57:00.550Z,0
2022-11-18T08:58:00.100Z,0
2022-11-18T08:58:59.665Z,0
2022-11-18T09:00:01.243Z,0
2022-11-18T09:01:01.894Z,0
2022-11-18T09:02:04.006Z,0
2022-11-18T09:03:01.535Z,0
2022-11-18T09:04:01.092Z,0
2022-11-18T09:05:01.098Z,0
2022-11-18T09:06:01.477Z,0
2022-11-18T09:07:01.344Z,0
2022-11-18T09:08:04.031Z,0
2022-11-18T09:09:06.167Z,0
2022-11-18T09:10:01.308Z,0
2022-11-18T09:11:02.368Z,0
2022-11-18T09:12:01.136Z,0
2022-11-18T09:13:24.883Z,0
2022-11-18T09:15:17.193Z,0
2022-11-18T09:16:01.378Z,0
2022-11-18T09:17:02.263Z,0.1
2022-11-18T09:18:01.088Z,0.1
2022-11-18T09:19:18.222Z,0.1
2022-11-18T09:20:01.080Z,0
2022-11-18T09:21:01.090Z,0
2022-11-18T09:22:01.094Z,0
2022-11-18T09:23:00.913Z,0
2022-11-18T09:24:01.495Z,0
2022-11-18T09:25:01.222Z,0
2022-11-18T09:26:01.131Z,0
2022-11-18T09:27:01.119Z,0
2022-11-18T09:28:01.137Z,0
2022-11-18T09:29:01.043Z,0
2022-11-18T09:30:01.139Z,0
2022-11-18T09:31:01.168Z,0
2022-11-18T09:32:01.561Z,0
2022-11-18T09:33:01.276Z,0
2022-11-18T09:34:01.070Z,0
2022-11-18T09:35:01.080Z,0
2022-11-18T09:36:00.785Z,0
2022-11-18T09:37:00.453Z,0
2022-11-18T09:38:00.131Z,0
2022-11-18T09:38:59.758Z,0
2022-11-18T09:40:01.770Z,0.1
2022-11-18T09:41:01.497Z,0
2022-11-18T09:42:00.283Z,0
2022-11-18T09:42:59.892Z,0
2022-11-18T09:43:59.584Z,0
2022-11-18T09:45:01.166Z,0
2022-11-18T09:46:01.145Z,0
2022-11-18T09:47:01.153Z,0
2022-11-18T09:48:01.460Z,0
2022-11-18T09:49:01.777Z,0
2022-11-18T09:50:14.873Z,0
2022-11-18T09:51:01.895Z,0
2022-11-18T09:52:01.184Z,0
2022-11-18T09:53:01.165Z,0
2022-11-18T09:54:01.498Z,0
2022-11-18T09:55:01.257Z,0
2022-11-18T09:56:01.903Z,0
2022-11-18T09:57:01.975Z,0
2022-11-18T09:58:01.248Z,0
2022-11-18T09:59:01.358Z,0
2022-11-18T10:00:01.225Z,0.1
2022-11-18T10:01:02.069Z,0.1
2022-11-18T10:02:01.907Z,0
2022-11-18T10:03:01.560Z,0
2022-11-18T10:04:01.178Z,0
2022-11-18T10:05:01.061Z,0
2022-11-18T10:06:01.172Z,0
2022-11-18T10:07:01.164Z,0
2022-11-18T10:08:00.774Z,0.1
2022-11-18T10:09:00.376Z,0
2022-11-18T10:10:00.061Z,0
2022-11-18T10:10:59.771Z,0
2022-11-18T10:12:01.974Z,0
2022-11-18T10:13:01.463Z,0
2022-11-18T10:14:01.325Z,0
2022-11-18T10:15:01.828Z,0
2022-11-18T10:16:03.235Z,0
2022-11-18T10:17:01.161Z,0
2022-11-18T10:18:01.169Z,0
2022-11-18T10:19:01.444Z,0
2022-11-18T10:20:01.174Z,0
2022-11-18T10:21:05.685Z,0
2022-11-18T10:22:01.327Z,0
2022-11-18T10:23:01.105Z,0
2022-11-18T10:24:02.120Z,0
2022-11-18T10:25:00.839Z,0
2022-11-18T10:26:08.188Z,0.1
2022-11-18T10:27:01.852Z,0.1
2022-11-18T10:28:01.121Z,0.1
2022-11-18T10:29:01.114Z,0.1
2022-11-18T10:30:01.141Z,0.1
2022-11-18T10:31:10.413Z,0
2022-11-18T10:32:03.832Z,0
2022-11-18T10:33:02.162Z,0
2022-11-18T10:34:01.258Z,0
2022-11-18T10:35:02.473Z,0.1
2022-11-18T10:36:13.187Z,0.1
2022-11-18T10:37:01.147Z,0.1
2022-11-18T10:38:07.808Z,0.1
2022-11-18T10:39:01.078Z,0.1
2022-11-18T10:40:01.075Z,0.1
2022-11-18T10:41:16.186Z,0.1
2022-11-18T10:42:01.474Z,0.1
2022-11-18T10:43:00.903Z,0.1
2022-11-18T10:44:01.093Z,0.1
2022-11-18T10:45:01.101Z,0.1
2022-11-18T10:46:01.188Z,0.1
2022-11-18T10:47:01.110Z,0.1
2022-11-18T10:48:01.259Z,0.1
2022-11-18T10:49:01.160Z,0.1
2022-11-18T10:50:01.137Z,0.1
2022-11-18T10:51:01.172Z,0.1
2022-11-18T10:52:01.284Z,0.1
2022-11-18T10:53:01.523Z,0.1
2022-11-18T10:54:01.543Z,0.1
2022-11-18T10:55:01.072Z,0.1
2022-11-18T10:56:01.069Z,0.1
2022-11-18T10:57:01.038Z,0.1
2022-11-18T10:58:01.322Z,0.1
2022-11-18T10:59:01.066Z,0.1
2022-11-18T11:00:01.202Z,0.1
2022-11-18T11:01:01.198Z,0.1
2022-11-18T11:02:05.375Z,0.1
2022-11-18T11:03:01.011Z,0.1
2022-11-18T11:04:01.254Z,0.1
2022-11-18T11:05:01.244Z,0.1
2022-11-18T11:06:00.924Z,0.1
2022-11-18T11:07:01.190Z,0.1
2022-11-18T11:08:21.554Z,0.1
2022-11-18T11:09:01.059Z,0.2
2022-11-18T11:10:01.105Z,0.2
2022-11-18T11:11:01.066Z,0.2
2022-11-18T11:12:01.420Z,0.1
2022-11-18T11:13:01.461Z,0.1
2022-11-18T11:14:01.220Z,0.1
2022-11-18T11:15:01.805Z,0.1
2022-11-18T11:16:02.065Z,0.1
2022-11-18T11:17:02.599Z,0.1
2022-11-18T11:18:01.272Z,0.1
2022-11-18T11:19:01.339Z,0.1
2022-11-18T11:20:01.119Z,0.1
2022-11-18T11:21:01.177Z,0.2
2022-11-18T11:22:01.132Z,0.2
2022-11-18T11:23:00.851Z,0.2
2022-11-18T11:24:00.423Z,0.2
2022-11-18T11:25:00.026Z,0.2
2022-11-18T11:28:17.312Z,0.2
2022-11-18T11:29:02.087Z,0.1
2022-11-18T11:30:02.137Z,0.2
2022-11-18T11:31:01.793Z,0.2
2022-11-18T11:32:01.759Z,0.2
2022-11-18T11:33:01.445Z,0.3
2022-11-18T11:34:01.162Z,0.3
2022-11-18T11:35:01.114Z,0.3
2022-11-18T11:36:01.271Z,0.3
2022-11-18T11:37:01.499Z,0.3
2022-11-18T11:38:02.127Z,0.3
2022-11-18T11:39:04.878Z,0.3
2022-11-18T11:40:01.141Z,0.3
2022-11-18T11:41:01.153Z,0.3
2022-11-18T11:42:01.165Z,0.3
2022-11-18T11:43:00.857Z,0.3
2022-11-18T11:44:00.651Z,0.3
2022-11-18T11:45:00.194Z,0.3
2022-11-18T11:45:59.845Z,0.3
2022-11-18T11:47:01.792Z,0.3
2022-11-18T11:48:01.756Z,0.3
2022-11-18T11:49:01.762Z,0.3
2022-11-18T11:50:01.786Z,0.4
2022-11-18T11:51:04.760Z,0.4
2022-11-18T11:52:02.232Z,0.4
2022-11-18T11:53:02.664Z,0.4
2022-11-18T11:54:02.086Z,0.3
2022-11-18T11:55:01.366Z,0.4
2022-11-18T11:56:01.244Z,0.4
2022-11-18T11:57:01.396Z,0.4
2022-11-18T11:58:01.322Z,0.4
2022-11-18T11:59:02.129Z,0.4
2022-11-18T12:00:02.753Z,0.3
2022-11-18T12:01:01.064Z,0.4
2022-11-18T12:02:03.407Z,0.4
2022-11-18T12:03:01.086Z,0.4
2022-11-18T12:04:01.095Z,0.4
2022-11-18T12:05:01.091Z,0.4
2022-11-18T12:06:01.243Z,0.4
2022-11-18T12:07:05.434Z,0.3
2022-11-18T12:08:01.978Z,0.3
2022-11-18T12:09:01.391Z,0.3
2022-11-18T12:10:01.138Z,0.3
2022-11-18T12:11:01.139Z,0.3
2022-11-18T12:12:09.594Z,0.4
2022-11-18T12:13:01.108Z,0.3
2022-11-18T12:14:01.072Z,0.4
2022-11-18T12:15:01.115Z,0.4
2022-11-18T12:16:01.062Z,0.4
2022-11-18T12:17:10.963Z,0.5
2022-11-18T12:18:01.147Z,0.5
2022-11-18T12:19:01.104Z,0.5
2022-11-18T12:20:01.080Z,0.4
2022-11-18T12:21:01.088Z,0.4
2022-11-18T12:22:13.660Z,0.4
2022-11-18T12:23:00.790Z,0.4
2022-11-18T12:24:00.577Z,0.4
2022-11-18T12:25:00.357Z,0.4
2022-11-18T12:26:00.011Z,0.4
2022-11-18T12:27:14.747Z,0.4
2022-11-18T12:28:01.565Z,0.4
2022-11-18T12:29:01.141Z,0.5
2022-11-18T12:30:01.361Z,0.5
2022-11-18T12:31:01.367Z,0.5
2022-11-18T12:32:16.788Z,0.5
2022-11-18T12:33:01.481Z,0.5
2022-11-18T12:34:01.100Z,0.5
2022-11-18T12:35:01.214Z,0.4
2022-11-18T12:36:01.096Z,0.5
2022-11-18T12:37:01.096Z,0.4
2022-11-18T12:38:01.120Z,0.4
2022-11-18T12:39:01.125Z,0.5
2022-11-18T12:40:01.140Z,0.4
2022-11-18T12:41:01.125Z,0.4
2022-11-18T12:42:01.345Z,0.4
2022-11-18T12:43:00.848Z,0.4
2022-11-18T12:44:00.411Z,0.5
2022-11-18T12:45:00.109Z,0.4
2022-11-18T12:45:59.727Z,0.4
2022-11-18T12:47:01.340Z,0.5
2022-11-18T12:48:01.169Z,0.5
2022-11-18T12:49:01.065Z,0.5
2022-11-18T12:50:01.065Z,0.5
2022-11-18T12:51:01.076Z,0.5
2022-11-18T12:52:01.111Z,0.4
2022-11-18T12:53:01.086Z,0.4
2022-11-18T12:54:01.105Z,0.5
2022-11-18T12:55:01.098Z,0.4
2022-11-18T12:56:01.104Z,0.4
2022-11-18T12:57:01.113Z,0.4
2022-11-18T12:58:01.134Z,0.5
2022-11-18T12:59:01.140Z,0.5
2022-11-18T13:00:01.135Z,0.5
2022-11-18T13:01:01.237Z,0.5
2022-11-18T13:02:01.150Z,0.4
2022-11-18T13:03:01.132Z,0.4
2022-11-18T13:04:01.174Z,0.4
2022-11-18T13:05:01.063Z,0.4
2022-11-18T13:06:01.069Z,0.4
2022-11-18T13:07:01.125Z,0.4
2022-11-18T13:08:01.070Z,0.4
2022-11-18T13:09:01.087Z,0.4
2022-11-18T13:10:01.147Z,0.4
2022-11-18T13:11:01.129Z,0.4
2022-11-18T13:12:01.163Z,0.3
2022-11-18T13:13:01.630Z,0.3
2022-11-18T13:14:01.236Z,0.3
2022-11-18T13:15:01.123Z,0.3
2022-11-18T13:16:01.137Z,0.3
2022-11-18T13:17:01.132Z,0.3
2022-11-18T13:18:01.154Z,0.3
2022-11-18T13:19:01.189Z,0.3
2022-11-18T13:20:01.162Z,0.3
2022-11-18T13:21:01.167Z,0.2
2022-11-18T13:22:16.468Z,0.3
2022-11-18T13:23:00.864Z,0.2
2022-11-18T13:24:01.172Z,0.2
2022-11-18T13:25:01.339Z,0.2
2022-11-18T13:26:01.379Z,0.2
2022-11-18T13:27:01.351Z,0.2
2022-11-18T13:28:01.140Z,0.2
2022-11-18T13:29:01.182Z,0.2
2022-11-18T13:30:01.057Z,0.2
2022-11-18T13:31:01.135Z,0.1
2022-11-18T13:32:01.136Z,0.1
2022-11-18T13:33:01.616Z,0.1
2022-11-18T13:34:01.264Z,0.1
2022-11-18T13:35:01.157Z,0.1
2022-11-18T13:36:01.188Z,0.2
2022-11-18T13:37:01.164Z,0.2
2022-11-18T13:38:01.073Z,0.2
2022-11-18T13:39:01.084Z,0.2
2022-11-18T13:40:01.087Z,0.2
2022-11-18T13:41:01.049Z,0.2
2022-11-18T13:42:01.059Z,0.2
2022-11-18T13:43:01.497Z,0.2
2022-11-18T13:44:00.723Z,0.1
2022-11-18T13:45:00.299Z,0.1
2022-11-18T13:45:59.890Z,0.1
2022-11-18T13:46:59.512Z,0.1
2022-11-18T13:48:01.121Z,0.1
2022-11-18T13:49:01.148Z,0.1
2022-11-18T13:50:01.881Z,0.1
2022-11-18T13:51:00.840Z,0.1
2022-11-18T13:52:00.432Z,0.1
2022-11-18T13:53:00.018Z,0.1
2022-11-18T13:53:59.620Z,0.1
2022-11-18T13:55:02.087Z,0
2022-11-18T13:56:02.091Z,0
2022-11-18T13:57:01.195Z,0
2022-11-18T13:58:01.079Z,0